createdAt,value
2022-08-24T00:04:08.427Z,101818.22
2022-08-24T00:09:13.901Z,101824.66
2022-08-24T00:14:18.462Z,101820.72
2022-08-24T00:19:25.335Z,101817.41
2022-08-24T00:24:27.429Z,101824.69
2022-08-24T00:29:29.371Z,101821.00
2022-08-24T00:34:34.336Z,101820.66
2022-08-24T00:39:38.401Z,101807.75
2022-08-24T00:44:40.773Z,101813.84
2022-08-24T00:50:00.313Z,101805.56
2022-08-24T00:55:10.430Z,101801.28
2022-08-24T01:00:19.194Z,101806.66
2022-08-24T01:05:32.868Z,101808.06
2022-08-24T01:10:43.781Z,101809.28
2022-08-24T01:15:50.653Z,101809.63
2022-08-24T01:21:40.912Z,101802.38
2022-08-24T01:26:49.410Z,101805.47
2022-08-24T01:31:56.588Z,101804.41
2022-08-24T01:37:06.141Z,101800.97
2022-08-24T01:42:10.838Z,101807.13
2022-08-24T01:47:14.169Z,101802.88
2022-08-24T01:52:21.104Z,101821.44
2022-08-24T01:57:28.959Z,101816.72
2022-08-24T02:02:32.473Z,101820.38
2022-08-24T02:07:35.019Z,101818.13
2022-08-24T02:12:40.699Z,101813.13
2022-08-24T02:17:44.103Z,101822.00
2022-08-24T02:22:58.676Z,101820.81
2022-08-24T02:28:08.429Z,101815.19
2022-08-24T02:33:16.040Z,101821.56
2022-08-24T02:38:23.848Z,101822.28
2022-08-24T02:43:28.773Z,101827.13
2022-08-24T02:48:33.015Z,101822.59
2022-08-24T02:53:35.009Z,101838.78
2022-08-24T02:58:39.183Z,101833.06
2022-08-24T03:03:46.863Z,101832.31
2022-08-24T03:08:53.305Z,101839.97
2022-08-24T03:13:59.373Z,101833.53
2022-08-24T03:19:01.698Z,101829.88
2022-08-24T03:24:09.102Z,101828.25
2022-08-24T03:29:18.067Z,101814.75
2022-08-24T03:34:22.191Z,101822.34
2022-08-24T03:39:26.420Z,101821.59
2022-08-24T03:44:36.968Z,101832.56
2022-08-24T03:49:38.749Z,101829.09
2022-08-24T03:54:40.579Z,101840.00
2022-08-24T03:59:46.526Z,101843.63
2022-08-24T04:04:48.679Z,101848.69
2022-08-24T04:09:53.333Z,101845.81
2022-08-24T04:14:59.578Z,101853.34
2022-08-24T04:20:06.318Z,101846.09
2022-08-24T04:25:12.178Z,101855.13
2022-08-24T04:30:18.775Z,101865.59
2022-08-24T04:35:42.918Z,101874.97
2022-08-24T04:40:46.961Z,101872.75
2022-08-24T04:45:53.512Z,101880.78
2022-08-24T04:51:05.188Z,101880.84
2022-08-24T04:56:15.536Z,101877.38
2022-08-24T05:01:22.106Z,101889.47
2022-08-24T05:06:30.188Z,101881.38
2022-08-24T05:11:32.090Z,101886.81
2022-08-24T05:16:35.277Z,101892.84
2022-08-24T05:21:39.993Z,101896.81
2022-08-24T05:26:43.612Z,101899.72
2022-08-24T05:31:46.344Z,101898.81
2022-08-24T05:36:50.867Z,101897.72
2022-08-24T05:42:04.951Z,101897.44
2022-08-24T05:47:10.366Z,101902.56
2022-08-24T05:52:14.613Z,101896.25
2022-08-24T05:57:16.492Z,101903.53
2022-08-24T06:02:36.939Z,101906.41
2022-08-24T06:07:40.937Z,101902.56
2022-08-24T06:12:42.726Z,101905.00
2022-08-24T06:17:47.486Z,101912.88
2022-08-24T06:22:52.642Z,101923.69
2022-08-24T06:27:57.050Z,101924.22
2022-08-24T06:33:01.748Z,101934.00
2022-08-24T06:38:14.349Z,101934.13
2022-08-24T06:43:20.131Z,101934.06
2022-08-24T06:48:27.051Z,101934.59
2022-08-24T06:53:30.892Z,101948.50
2022-08-24T06:58:33.822Z,101938.97
2022-08-24T07:03:37.007Z,101943.28
2022-08-24T07:08:57.758Z,101943.19
2022-08-24T07:14:06.819Z,101957.34
2022-08-24T07:19:11.506Z,101965.78
2022-08-24T07:24:18.718Z,101978.03
2022-08-24T07:29:48.550Z,101972.19
2022-08-24T07:34:51.727Z,101972.69
2022-08-24T07:39:54.394Z,101983.53
2022-08-24T07:44:56.701Z,101989.38
2022-08-24T07:50:00.705Z,101993.09
2022-08-24T07:55:06.313Z,101990.69
2022-08-24T08:00:12.560Z,101986.66
2022-08-24T08:05:25.322Z,101981.69
2022-08-24T08:10:31.126Z,101992.13
2022-08-24T08:15:34.421Z,101992.72
2022-08-24T08:20:43.026Z,102004.47
2022-08-24T08:25:57.513Z,101994.63
2022-08-24T08:31:15.151Z,102001.63
2022-08-24T08:36:17.359Z,101996.00
2022-08-24T08:41:49.795Z,102001.53
2022-08-24T08:47:16.584Z,102013.72
2022-08-24T08:52:31.364Z,102013.00
2022-08-24T08:58:07.183Z,102016.50
2022-08-24T09:03:33.380Z,102014.69
2022-08-24T09:09:34.994Z,102006.69
2022-08-24T14:49:50.075Z,101962.81
2022-08-24T14:54:55.814Z,101955.75
2022-08-24T15:00:04.646Z,101953.13
2022-08-24T15:05:09.679Z,101949.44
2022-08-24T15:10:14.968Z,101948.56
2022-08-24T15:15:35.641Z,101946.97
2022-08-24T15:21:20.667Z,101947.72
2022-08-24T15:26:43.460Z,101934.16
2022-08-24T15:32:07.934Z,101928.91
2022-08-24T15:37:10.605Z,101931.41
2022-08-24T15:42:16.968Z,101940.81
2022-08-24T15:47:27.305Z,101935.97
2022-08-24T15:52:44.293Z,101932.72
2022-08-24T15:57:46.322Z,101938.50
2022-08-24T16:02:48.695Z,101943.19
2022-08-24T16:08:02.641Z,101943.50
2022-08-24T16:13:14.296Z,101941.16
2022-08-24T16:18:20.458Z,101933.41
2022-08-24T16:23:28.623Z,101946.34
2022-08-24T16:28:30.287Z,101941.09
2022-08-24T16:33:37.378Z,101942.38
2022-08-24T16:38:50.126Z,101931.44
2022-08-24T16:43:52.043Z,101944.84
2022-08-24T16:48:54.857Z,101953.81
2022-08-24T16:53:57.565Z,101948.56
2022-08-24T16:59:01.927Z,101938.91
2022-08-24T17:04:09.280Z,101941.91
2022-08-24T17:09:11.709Z,101932.50
2022-08-24T17:14:15.838Z,101931.09
2022-08-24T17:19:18.819Z,101932.41
2022-08-24T17:24:23.446Z,101944.94
2022-08-24T17:29:25.994Z,101936.88
2022-08-24T17:34:28.395Z,101945.69
2022-08-24T17:39:30.279Z,101950.75
2022-08-24T17:44:33.527Z,101949.09
2022-08-24T17:49:35.300Z,101953.13
2022-08-24T17:54:37.027Z,101965.09
2022-08-24T17:59:38.939Z,101957.28
2022-08-24T18:04:45.542Z,101956.31
2022-08-24T18:09:54.675Z,101961.66
2022-08-24T18:14:58.865Z,101968.84
2022-08-24T18:20:03.357Z,101971.66
2022-08-24T18:25:06.423Z,101975.16
2022-08-24T18:30:23.068Z,101983.47
2022-08-24T18:35:28.277Z,101991.41
2022-08-24T18:40:34.269Z,101986.59
2022-08-24T18:45:36.329Z,101990.22
2022-08-24T18:50:42.275Z,101995.97
2022-08-24T18:55:46.236Z,102008.66
2022-08-24T19:00:49.008Z,102006.16
2022-08-24T19:05:56.304Z,102010.84
2022-08-24T19:11:00.742Z,102013.81
2022-08-24T19:16:03.005Z,102014.06
2022-08-24T19:21:07.276Z,102019.00
2022-08-24T19:26:09.220Z,102011.25
2022-08-24T19:31:15.009Z,102022.22
2022-08-24T19:36:17.348Z,102020.50
2022-08-24T19:41:19.671Z,102030.84
2022-08-24T19:46:23.433Z,102024.22
2022-08-24T19:51:26.095Z,102034.63
2022-08-24T19:56:27.862Z,102031.00
2022-08-24T20:01:35.007Z,102029.31
2022-08-24T20:06:37.613Z,102038.31
2022-08-24T20:11:39.695Z,102037.44
2022-08-24T20:16:46.184Z,102037.53
2022-08-24T20:21:48.074Z,102046.78
2022-08-24T20:26:53.195Z,102046.31
2022-08-24T20:32:02.390Z,102050.63
2022-08-24T20:37:04.752Z,102053.03
2022-08-24T20:42:14.867Z,102050.97
2022-08-24T20:47:21.776Z,102052.22
2022-08-24T20:52:26.303Z,102049.03
2022-08-24T20:57:28.064Z,102057.13
2022-08-24T21:02:29.771Z,102062.81
2022-08-24T21:07:31.729Z,102056.47
2022-08-24T21:12:33.472Z,102072.53
2022-08-24T21:17:37.707Z,102072.97
2022-08-24T21:22:42.792Z,102064.34
2022-08-24T21:27:48.010Z,102063.72
2022-08-24T21:33:11.394Z,102068.53
2022-08-24T21:38:15.309Z,102067.03
2022-08-24T21:43:20.185Z,102065.06
2022-08-24T21:48:24.194Z,102067.47
2022-08-24T21:53:28.644Z,102070.63
2022-08-24T21:58:30.420Z,102067.25
2022-08-24T22:03:40.073Z,102073.72
2022-08-24T22:08:44.509Z,102070.00
2022-08-24T22:13:46.993Z,102077.31
2022-08-24T22:18:55.064Z,102065.44
2022-08-24T22:24:00.983Z,102070.50
2022-08-24T22:29:06.933Z,102076.13
2022-08-24T22:34:11.554Z,102063.91
2022-08-24T22:39:17.612Z,102069.28
2022-08-24T22:44:27.894Z,102063.06
2022-08-24T22:49:32.418Z,102054.66
2022-08-24T22:54:39.414Z,102063.03
2022-08-24T22:59:46.767Z,102054.97
2022-08-24T23:04:51.204Z,102062.00
2022-08-24T23:09:56.282Z,102063.81
2022-08-24T23:14:58.118Z,102062.06
2022-08-24T23:20:06.459Z,102065.53
2022-08-24T23:25:13.127Z,102055.75
2022-08-24T23:30:14.907Z,102062.44
2022-08-24T23:35:16.762Z,102058.09
2022-08-24T23:40:20.604Z,102062.38
2022-08-24T23:45:28.053Z,102063.09
2022-08-24T23:50:32.686Z,102061.81
2022-08-24T23:55:37.054Z,102059.22
